createdAt,value
2023-02-23T00:01:42.190Z,14.48
2023-02-23T00:04:08.836Z,13.65
2023-02-23T00:06:36.158Z,14.75
2023-02-23T00:09:07.041Z,14.57
2023-02-23T00:11:33.828Z,14.37
2023-02-23T00:14:01.345Z,14.52
2023-02-23T00:16:27.809Z,14.52
2023-02-23T00:18:55.303Z,15.32
2023-02-23T00:21:26.500Z,13.45
2023-02-23T00:23:54.940Z,16.88
2023-02-23T00:26:23.338Z,18.75
2023-02-23T00:28:51.112Z,17.85
2023-02-23T00:31:18.073Z,19.60
2023-02-23T00:33:44.752Z,18.77
2023-02-23T00:36:12.619Z,17.42
2023-02-23T00:38:40.401Z,17.83
2023-02-23T00:41:07.689Z,16.50
2023-02-23T00:43:34.918Z,16.35
2023-02-23T00:46:05.594Z,15.65
2023-02-23T00:48:32.957Z,15.05
2023-02-23T00:51:03.321Z,15.00
2023-02-23T00:53:29.950Z,16.58
2023-02-23T00:55:59.454Z,17.13
2023-02-23T00:58:26.586Z,17.50
2023-02-23T01:00:53.399Z,17.92
2023-02-23T01:03:19.937Z,18.00
2023-02-23T01:05:49.902Z,15.77
2023-02-23T01:08:16.656Z,16.33
2023-02-23T01:10:43.999Z,17.05
2023-02-23T01:13:11.171Z,15.13
2023-02-23T01:15:44.408Z,14.70
2023-02-23T01:18:11.484Z,16.70
2023-02-23T01:20:37.946Z,17.90
2023-02-23T01:23:05.483Z,20.58
2023-02-23T01:25:32.779Z,20.63
2023-02-23T01:27:59.332Z,20.63
2023-02-23T01:30:25.822Z,19.20
2023-02-23T01:32:52.360Z,20.50
2023-02-23T01:35:19.201Z,19.13
2023-02-23T01:37:45.605Z,20.10
2023-02-23T01:40:16.554Z,21.25
2023-02-23T01:42:44.255Z,15.70
2023-02-23T01:45:34.892Z,19.83
2023-02-23T01:48:06.741Z,19.65
2023-02-23T01:52:59.624Z,21.33
2023-02-23T01:55:26.544Z,20.38
2023-02-23T01:57:54.801Z,19.17
2023-02-23T02:00:25.832Z,19.58
2023-02-23T02:02:52.967Z,21.57
2023-02-23T02:05:20.332Z,20.75
2023-02-23T02:07:48.444Z,19.13
2023-02-23T02:10:15.420Z,22.02
2023-02-23T02:12:44.253Z,22.27
2023-02-23T02:15:17.474Z,22.65
2023-02-23T02:17:45.159Z,23.92
2023-02-23T02:20:14.830Z,23.23
2023-02-23T02:22:48.213Z,25.73
2023-02-23T02:25:33.009Z,26.23
2023-02-23T02:28:18.170Z,29.40
2023-02-23T02:31:03.567Z,25.25
2023-02-23T02:33:32.762Z,24.55
2023-02-23T02:35:59.236Z,24.65
2023-02-23T02:38:40.923Z,22.55
2023-02-23T02:41:13.270Z,20.67
2023-02-23T02:43:42.960Z,21.70
2023-02-23T02:46:13.223Z,22.10
2023-02-23T02:48:44.122Z,20.50
2023-02-23T02:51:36.867Z,19.37
2023-02-23T02:54:07.259Z,19.13
2023-02-23T02:56:40.499Z,20.60
2023-02-23T02:59:36.441Z,21.67
2023-02-23T03:02:22.672Z,22.83
2023-02-23T03:05:07.685Z,20.83
2023-02-23T03:08:12.058Z,20.73
2023-02-23T03:11:10.853Z,21.48
2023-02-23T03:14:17.647Z,21.75
2023-02-23T03:17:11.742Z,20.35
2023-02-23T03:20:02.140Z,22.58
2023-02-23T03:22:51.156Z,20.02
2023-02-23T03:25:45.204Z,19.20
2023-02-23T03:28:41.604Z,19.63
2023-02-23T03:31:47.707Z,16.73
2023-02-23T03:34:47.242Z,17.05
2023-02-23T03:37:34.996Z,16.60
2023-02-23T03:40:37.856Z,16.77
2023-02-23T03:43:26.340Z,18.02
2023-02-23T03:46:14.111Z,17.20
2023-02-23T03:48:59.598Z,19.05
2023-02-23T03:51:45.089Z,19.13
2023-02-23T03:54:33.948Z,19.13
2023-02-23T03:57:20.100Z,18.13
2023-02-23T04:00:08.697Z,19.52
2023-02-23T04:02:53.900Z,19.60
2023-02-23T04:05:39.855Z,18.90
2023-02-23T04:08:26.671Z,19.67
2023-02-23T04:11:21.272Z,18.42
2023-02-23T04:13:49.939Z,15.90
2023-02-23T04:16:16.454Z,17.10
2023-02-23T04:18:43.035Z,16.95
2023-02-23T04:21:09.545Z,19.27
2023-02-23T04:23:37.607Z,20.30
2023-02-23T04:26:05.187Z,18.73
2023-02-23T04:28:31.699Z,18.50
2023-02-23T04:30:58.263Z,19.40
2023-02-23T04:33:27.438Z,20.80
2023-02-23T04:35:54.494Z,20.52
2023-02-23T04:38:21.411Z,20.40
2023-02-23T04:40:48.087Z,16.88
2023-02-23T04:43:14.932Z,19.65
2023-02-23T04:45:41.798Z,20.17
2023-02-23T04:48:08.490Z,18.52
2023-02-23T04:50:34.961Z,19.33
2023-02-23T04:53:01.494Z,17.75
2023-02-23T04:55:27.906Z,21.10
2023-02-23T04:57:59.216Z,19.45
2023-02-23T05:00:25.842Z,18.13
2023-02-23T05:02:52.376Z,17.73
2023-02-23T05:05:18.862Z,17.73
2023-02-23T05:07:45.369Z,19.20
2023-02-23T05:10:11.927Z,19.25
2023-02-23T05:12:38.425Z,19.67
2023-02-23T05:15:05.113Z,18.40
2023-02-23T05:17:31.662Z,18.98
2023-02-23T05:19:58.156Z,19.00
2023-02-23T05:22:24.632Z,20.40
2023-02-23T05:24:51.147Z,20.55
2023-02-23T05:27:17.944Z,19.23
2023-02-23T05:29:44.721Z,20.85
2023-02-23T05:32:11.344Z,20.38
2023-02-23T05:34:39.263Z,21.50
2023-02-23T05:37:06.184Z,23.23
2023-02-23T05:39:32.777Z,24.02
2023-02-23T05:41:59.308Z,23.98
2023-02-23T05:44:25.813Z,27.00
2023-02-23T05:46:52.346Z,28.90
2023-02-23T05:49:19.092Z,29.30
2023-02-23T05:51:45.556Z,30.65
2023-02-23T05:54:13.464Z,34.63
2023-02-23T05:56:41.626Z,34.25
2023-02-23T05:59:08.211Z,33.35
2023-02-23T06:01:34.926Z,35.38
2023-02-23T06:04:01.493Z,34.33
2023-02-23T06:06:28.483Z,31.92
2023-02-23T06:08:55.111Z,33.20
2023-02-23T06:11:21.985Z,32.55
2023-02-23T06:13:48.723Z,32.13
2023-02-23T06:16:15.272Z,31.48
2023-02-23T06:18:41.743Z,35.63
2023-02-23T06:21:08.546Z,38.05
2023-02-23T06:23:35.114Z,35.30
2023-02-23T06:26:01.767Z,32.58
2023-02-23T06:28:28.718Z,35.45
2023-02-23T06:30:55.351Z,33.70
2023-02-23T06:33:22.236Z,34.95
2023-02-23T06:35:48.855Z,37.22
2023-02-23T06:38:15.462Z,34.92
2023-02-23T06:40:42.011Z,38.17
2023-02-23T06:43:08.490Z,35.97
2023-02-23T06:45:34.965Z,38.17
2023-02-23T06:48:01.791Z,38.65
2023-02-23T06:50:28.357Z,39.25
2023-02-23T06:52:56.719Z,37.40
2023-02-23T06:55:23.565Z,35.20
2023-02-23T06:57:50.263Z,35.20
2023-02-23T07:00:17.765Z,33.38
2023-02-23T07:02:44.873Z,33.88
2023-02-23T07:05:11.628Z,34.63
2023-02-23T07:07:38.604Z,31.13
2023-02-23T07:10:05.686Z,30.45
2023-02-23T07:12:32.546Z,34.05
2023-02-23T07:14:59.122Z,29.75
2023-02-23T07:17:25.586Z,31.58
2023-02-23T07:19:52.106Z,28.77
2023-02-23T07:22:18.619Z,28.20
2023-02-23T07:24:45.108Z,27.88
2023-02-23T07:27:11.612Z,28.17
2023-02-23T07:29:38.019Z,27.90
2023-02-23T07:32:11.885Z,27.65
2023-02-23T07:34:38.674Z,26.63
2023-02-23T07:37:05.437Z,25.90
2023-02-23T07:39:31.911Z,25.80
2023-02-23T07:41:58.551Z,23.60
2023-02-23T07:44:25.085Z,21.92
2023-02-23T07:46:52.878Z,23.20
2023-02-23T07:49:19.409Z,26.38
2023-02-23T07:51:45.844Z,28.08
2023-02-23T07:54:12.300Z,26.13
2023-02-23T07:56:38.806Z,22.33
2023-02-23T07:59:05.279Z,22.48
2023-02-23T08:01:31.791Z,22.23
2023-02-23T08:03:58.412Z,24.17
2023-02-23T08:06:25.133Z,24.35
2023-02-23T08:08:51.660Z,25.38
2023-02-23T08:11:18.450Z,26.70
2023-02-23T08:13:45.054Z,25.30
2023-02-23T08:16:12.633Z,25.75
2023-02-23T08:18:39.290Z,26.70
2023-02-23T08:21:06.054Z,25.23
2023-02-23T08:23:33.041Z,23.88
2023-02-23T08:26:00.132Z,25.60
2023-02-23T08:28:26.933Z,23.10
2023-02-23T08:30:53.760Z,19.30
2023-02-23T08:33:20.738Z,20.55
2023-02-23T08:35:47.228Z,19.92
2023-02-23T08:38:13.772Z,21.85
2023-02-23T08:40:40.185Z,19.67
2023-02-23T08:43:06.711Z,21.77
2023-02-23T11:54:31.644Z,8.55
2023-02-23T11:56:58.698Z,9.68
2023-02-23T11:59:31.015Z,10.43
2023-02-23T12:02:18.114Z,9.57
2023-02-23T12:04:49.127Z,9.82
2023-02-23T12:07:43.788Z,9.73
2023-02-23T12:10:28.447Z,9.35
2023-02-23T12:12:54.955Z,8.85
2023-02-23T12:15:24.169Z,8.82
2023-02-23T12:18:04.106Z,8.45
2023-02-23T12:20:36.080Z,9.05
2023-02-23T12:23:15.812Z,8.10
2023-02-23T12:25:53.077Z,8.77
2023-02-23T12:28:46.728Z,9.45
2023-02-23T12:31:28.472Z,9.20
2023-02-23T12:37:13.732Z,11.35
2023-02-23T12:39:45.245Z,9.52
2023-02-23T12:42:21.046Z,9.98
2023-02-23T12:44:53.146Z,9.35
2023-02-23T12:47:41.185Z,9.25
2023-02-23T12:50:26.292Z,8.98
2023-02-23T12:53:20.574Z,10.93
2023-02-23T12:55:47.487Z,9.77
2023-02-23T12:58:35.162Z,9.52
2023-02-23T13:01:12.859Z,11.95
2023-02-23T13:04:08.411Z,12.93
2023-02-23T13:06:58.064Z,12.77
2023-02-23T13:09:36.790Z,12.82
2023-02-23T13:12:04.822Z,9.45
2023-02-23T13:14:58.748Z,8.75
2023-02-23T13:17:37.118Z,13.23
2023-02-23T13:20:31.027Z,10.57
2023-02-23T13:23:03.466Z,10.38
2023-02-23T13:26:00.706Z,10.70
2023-02-23T13:28:42.023Z,9.90
2023-02-23T13:31:22.478Z,15.35
2023-02-23T13:33:50.065Z,10.07
2023-02-23T13:36:17.762Z,9.07
2023-02-23T13:38:53.219Z,9.77
2023-02-23T13:41:43.663Z,21.45
2023-02-23T13:44:21.017Z,11.00
2023-02-23T13:47:07.229Z,8.35
2023-02-23T13:49:49.369Z,8.75
2023-02-23T13:52:31.144Z,11.55
2023-02-23T13:55:03.687Z,10.85
2023-02-23T13:57:35.784Z,11.60
2023-02-23T14:00:03.107Z,11.35
2023-02-23T14:02:43.554Z,10.00
2023-02-23T14:05:20.863Z,8.95
2023-02-23T14:07:53.424Z,14.43
2023-02-23T14:10:25.339Z,9.70
2023-02-23T14:13:18.022Z,11.77
2023-02-23T14:15:53.588Z,8.13
2023-02-23T14:18:25.298Z,13.38
2023-02-23T14:20:56.442Z,10.18
2023-02-23T14:23:22.973Z,10.75
2023-02-23T14:26:08.624Z,12.57
2023-02-23T14:28:41.370Z,9.05
2023-02-23T14:31:11.018Z,14.02
2023-02-23T14:33:45.725Z,18.77
2023-02-23T14:36:24.315Z,13.40
2023-02-23T14:39:02.262Z,12.30
2023-02-23T14:41:52.410Z,10.30
2023-02-23T14:44:35.803Z,8.75
2023-02-23T14:47:28.490Z,10.80
2023-02-23T14:49:59.641Z,8.80
2023-02-23T14:52:29.026Z,8.95
2023-02-23T14:55:10.863Z,8.63
2023-02-23T14:57:39.020Z,9.80
2023-02-23T15:00:23.198Z,10.30
2023-02-23T15:03:12.748Z,8.85
2023-02-23T15:05:45.058Z,9.48
2023-02-23T15:08:23.079Z,9.27
2023-02-23T15:10:58.549Z,9.05
2023-02-23T15:16:06.999Z,8.70
2023-02-23T15:21:11.898Z,9.48
2023-02-23T15:23:38.988Z,9.32
2023-02-23T15:26:33.304Z,8.93
2023-02-23T15:29:15.460Z,8.00
2023-02-23T15:31:52.297Z,7.40
2023-02-23T15:34:30.673Z,8.30
2023-02-23T15:37:01.384Z,8.07
2023-02-23T15:39:38.675Z,8.35
2023-02-23T15:42:07.225Z,8.15
2023-02-23T15:44:44.151Z,6.82
2023-02-23T15:47:21.788Z,9.93
2023-02-23T15:49:50.260Z,35.78
2023-02-23T15:52:22.155Z,33.75
2023-02-23T15:54:58.272Z,32.03
2023-02-23T15:57:31.580Z,23.38
2023-02-23T16:00:00.505Z,19.55
2023-02-23T16:02:27.265Z,15.25
2023-02-23T16:04:54.095Z,12.43
2023-02-23T16:07:23.697Z,11.30
2023-02-23T16:12:32.651Z,8.95
2023-02-23T16:15:01.153Z,9.32
2023-02-23T16:17:30.688Z,9.60
2023-02-23T16:20:11.130Z,12.10
2023-02-23T16:22:39.945Z,11.68
2023-02-23T16:25:11.028Z,10.63
2023-02-23T16:27:37.796Z,11.50
2023-02-23T16:30:11.718Z,10.80
2023-02-23T16:32:41.588Z,11.07
2023-02-23T16:35:09.958Z,10.48
2023-02-23T16:37:49.315Z,10.15
2023-02-23T16:40:15.802Z,9.48
2023-02-23T16:42:42.349Z,10.15
2023-02-23T16:45:13.254Z,10.68
2023-02-23T16:47:43.695Z,11.67
2023-02-23T16:50:20.242Z,12.38
2023-02-23T16:52:51.780Z,11.77
2023-02-23T16:55:19.490Z,13.80
2023-02-23T16:57:50.762Z,11.95
2023-02-23T17:00:20.916Z,11.70
2023-02-23T17:02:47.551Z,12.50
2023-02-23T17:05:14.677Z,11.10
2023-02-23T17:07:41.339Z,11.35
2023-02-23T17:10:08.625Z,11.00
2023-02-23T17:12:35.134Z,11.48
2023-02-23T17:15:04.374Z,12.18
2023-02-23T17:17:31.456Z,13.13
2023-02-23T17:19:58.001Z,13.75
2023-02-23T17:22:24.542Z,13.82
2023-02-23T17:24:51.093Z,13.73
2023-02-23T17:27:17.818Z,12.95
2023-02-23T17:29:44.630Z,12.80
2023-02-23T17:32:11.285Z,11.60
2023-02-23T17:34:38.477Z,11.52
2023-02-23T17:37:07.495Z,12.68
2023-02-23T17:39:34.402Z,12.27
2023-02-23T17:42:00.858Z,12.90
2023-02-23T17:44:27.422Z,14.40
2023-02-23T17:46:53.979Z,13.32
2023-02-23T17:49:20.443Z,13.65
2023-02-23T17:51:46.927Z,13.02
2023-02-23T17:54:14.057Z,14.85
2023-02-23T17:56:40.529Z,14.32
2023-02-23T17:59:07.054Z,13.98
2023-02-23T18:01:33.624Z,16.33
2023-02-23T18:04:00.778Z,14.93
2023-02-23T18:06:27.951Z,13.27
2023-02-23T18:08:54.469Z,14.23
2023-02-23T18:11:20.925Z,15.43
2023-02-23T18:13:48.296Z,14.90
2023-02-23T18:16:16.177Z,15.52
2023-02-23T18:18:44.617Z,15.73
2023-02-23T18:21:12.479Z,15.90
2023-02-23T18:23:39.157Z,16.80
2023-02-23T18:26:09.871Z,17.67
2023-02-23T18:28:37.303Z,17.67
2023-02-23T18:31:03.951Z,17.63
2023-02-23T18:33:31.566Z,16.60
2023-02-23T18:35:58.195Z,17.40
2023-02-23T18:38:24.663Z,17.60
2023-02-23T18:40:51.109Z,17.75
2023-02-23T18:43:17.629Z,15.80
2023-02-23T18:45:44.125Z,16.15
2023-02-23T18:48:13.494Z,15.05
2023-02-23T18:50:40.487Z,17.90
2023-02-23T18:53:08.983Z,16.00
2023-02-23T18:55:36.335Z,16.45
2023-02-23T18:58:03.336Z,16.35
2023-02-23T19:00:33.791Z,15.63
2023-02-23T19:03:00.320Z,14.98
2023-02-23T19:05:26.819Z,16.08
2023-02-23T19:07:54.716Z,15.95
2023-02-23T19:10:21.219Z,16.10
2023-02-23T19:12:47.740Z,16.58
2023-02-23T19:15:14.189Z,16.80
2023-02-23T19:17:40.664Z,16.23
2023-02-23T19:20:13.959Z,17.42
2023-02-23T19:22:41.143Z,15.90
2023-02-23T19:25:11.767Z,17.42
2023-02-23T19:27:38.626Z,15.82
2023-02-23T19:30:05.626Z,15.90
2023-02-23T19:32:32.280Z,15.40
2023-02-23T19:34:58.798Z,15.20
2023-02-23T19:37:25.370Z,14.65
2023-02-23T19:39:53.932Z,16.35
2023-02-23T19:42:20.563Z,16.83
2023-02-23T19:44:47.050Z,17.83
2023-02-23T19:47:13.521Z,16.48
2023-02-23T19:49:40.043Z,16.30
2023-02-23T19:52:06.512Z,15.75
2023-02-23T19:54:37.872Z,16.58
2023-02-23T19:57:04.597Z,16.85
2023-02-23T19:59:31.052Z,16.40
2023-02-23T20:01:57.589Z,16.30
2023-02-23T20:04:24.109Z,15.32
2023-02-23T20:06:50.601Z,16.60
2023-02-23T20:09:17.082Z,17.55
2023-02-23T20:11:43.614Z,17.85
2023-02-23T20:14:10.138Z,15.85
2023-02-23T20:16:37.021Z,18.60
2023-02-23T20:19:05.509Z,17.40
2023-02-23T20:21:32.567Z,15.05
2023-02-23T20:24:00.769Z,15.88
2023-02-23T20:26:29.312Z,14.88
2023-02-23T20:28:56.198Z,16.70
2023-02-23T20:31:30.014Z,15.07
2023-02-23T20:33:57.550Z,13.93
2023-02-23T20:36:24.641Z,15.32
2023-02-23T20:38:51.184Z,14.57
2023-02-23T20:41:17.922Z,13.85
2023-02-23T20:43:44.534Z,14.50
2023-02-23T20:46:15.491Z,14.07
2023-02-23T20:48:42.343Z,14.20
2023-02-23T20:51:12.865Z,14.77
2023-02-23T20:53:40.166Z,13.82
2023-02-23T20:56:07.194Z,13.90
2023-02-23T20:58:33.749Z,15.50
2023-02-23T21:01:06.288Z,14.80
2023-02-23T21:03:33.834Z,15.52
2023-02-23T21:06:00.589Z,14.65
2023-02-23T21:08:28.906Z,14.93
2023-02-23T21:10:55.529Z,14.75
2023-02-23T21:13:23.178Z,15.40
2023-02-23T21:16:01.384Z,16.42
2023-02-23T21:18:28.220Z,15.65
2023-02-23T21:20:57.624Z,16.67
2023-02-23T21:23:24.443Z,17.27
2023-02-23T21:25:53.084Z,16.77
2023-02-23T21:28:20.752Z,17.45
2023-02-23T21:30:47.423Z,16.10
2023-02-23T21:33:14.311Z,16.38
2023-02-23T21:35:40.829Z,16.70
2023-02-23T21:38:08.430Z,16.30
2023-02-23T21:40:35.698Z,17.30
2023-02-23T21:43:06.629Z,16.90
2023-02-23T21:45:33.092Z,17.90
2023-02-23T21:47:59.609Z,17.40
2023-02-23T21:50:26.257Z,17.95
2023-02-23T21:52:56.010Z,17.70
2023-02-23T21:55:22.752Z,16.02
2023-02-23T21:57:49.722Z,16.60
2023-02-23T22:00:16.415Z,17.75
2023-02-23T22:02:46.415Z,18.08
2023-02-23T22:05:14.271Z,19.25
2023-02-23T22:07:40.744Z,22.05
2023-02-23T22:10:07.521Z,21.25
2023-02-23T22:12:34.012Z,21.38
2023-02-23T22:15:04.929Z,24.30
2023-02-23T22:17:32.814Z,17.17
2023-02-23T22:19:59.433Z,32.67
2023-02-23T22:22:25.933Z,25.50
2023-02-23T22:24:52.422Z,18.70
2023-02-23T22:27:18.897Z,16.75
2023-02-23T22:29:45.340Z,16.45
2023-02-23T22:32:12.027Z,16.45
2023-02-23T22:34:38.760Z,16.35
2023-02-23T22:37:05.256Z,15.85
2023-02-23T22:39:33.424Z,14.32
2023-02-23T22:41:59.881Z,14.90
2023-02-23T22:44:26.326Z,15.20
2023-02-23T22:46:53.212Z,15.32
2023-02-23T22:49:20.518Z,14.13
2023-02-23T22:51:47.095Z,14.38
2023-02-23T22:54:13.626Z,15.05
2023-02-23T22:56:42.101Z,16.17
2023-02-23T22:59:10.889Z,15.45
2023-02-23T23:01:38.761Z,16.13
2023-02-23T23:04:10.359Z,16.75
2023-02-23T23:09:03.985Z,15.45
2023-02-23T23:11:30.505Z,16.13
2023-02-23T23:14:01.949Z,16.80
2023-02-23T23:16:32.894Z,16.17
2023-02-23T23:19:03.413Z,16.80
2023-02-23T23:21:30.843Z,15.15
2023-02-23T23:23:58.794Z,14.13
2023-02-23T23:26:26.532Z,14.77
2023-02-23T23:28:55.102Z,15.02
2023-02-23T23:31:23.685Z,15.93
2023-02-23T23:33:51.661Z,15.25
2023-02-23T23:36:19.327Z,15.68
2023-02-23T23:38:45.838Z,14.85
2023-02-23T23:41:16.003Z,15.25
2023-02-23T23:43:46.450Z,16.50
2023-02-23T23:46:22.663Z,15.30
2023-02-23T23:48:54.405Z,15.07
2023-02-23T23:51:24.336Z,14.75
2023-02-23T23:54:09.781Z,16.38
2023-02-23T23:56:39.454Z,16.55
2023-02-23T23:59:12.967Z,15.48
